Time;durP1;ratioP1;P1;durP2;ratioP2;P2;SDS_P1;SDS_P2;PMS_P1;PMS_P2;Temp;Humidity;BMP_temperature;BMP_pressure;BME280_temperature;BME280_humidity;BME280_pressure;Samples;Min_cycle;Max_cycle;Signal;HPM_P1;HPM_P2
2023/10/09 00:01:26;475467.00;1.58;819.60;99833.00;0.33;173.28;;;;;18.60;1.00;;;;;;2264865;61;1911;-86
2023/10/09 00:03:55;509357.00;1.70;877.93;97088.00;0.32;168.55;;;;;18.40;1.00;;;;;;2264771;61;1056;-86
2023/10/09 00:06:31;517401.00;1.72;891.79;128055.00;0.43;221.98;;;;;18.60;1.00;;;;;;2264845;61;1147;-85
2023/10/09 00:09:11;878118.00;2.93;1517.72;165364.00;0.55;286.28;;;;;18.80;1.00;;;;;;2264819;61;1109;-87
2023/10/09 00:11:44;606767.00;2.02;1045.91;121296.00;0.40;210.32;;;;;19.10;1.00;;;;;;2264953;61;1452;-86
2023/10/09 00:14:12;884644.00;2.95;1529.17;90356.00;0.30;156.92;;;;;19.10;1.00;;;;;;2264882;61;1309;-85
2023/10/09 00:16:46;848940.00;2.83;1466.61;112405.00;0.37;194.98;;;;;19.30;1.00;;;;;;2264911;61;1134;-86
2023/10/09 00:19:17;511627.00;1.71;881.84;80271.00;0.27;139.51;;;;;19.20;1.00;;;;;;2264780;61;1596;-85
2023/10/09 00:21:44;656049.00;2.19;1131.10;172909.00;0.58;299.28;;;;;19.10;1.00;;;;;;2264819;61;1985;-86
2023/10/09 00:24:14;870843.00;2.90;1504.97;99911.00;0.33;173.42;;;;;19.00;1.00;;;;;;2264888;61;1004;-84
2023/10/09 00:26:45;488351.00;1.63;841.77;129166.00;0.43;223.89;;;;;18.80;1.00;;;;;;2264870;61;1223;-85
2023/10/09 00:29:15;399721.00;1.33;689.33;16828.00;0.06;29.78;;;;;18.40;1.00;;;;;;2264874;61;1245;-84
2023/10/09 00:31:49;560347.00;1.87;965.80;65162.00;0.22;113.40;;;;;18.30;1.00;;;;;;2264694;61;1397;-86
2023/10/09 00:34:19;884142.00;2.95;1528.28;197103.00;0.66;340.94;;;;;18.20;1.00;;;;;;2264872;61;1130;-85
2023/10/09 00:36:51;315931.00;1.05;545.30;24884.00;0.08;43.73;;;;;18.00;1.00;;;;;;2264721;61;1122;-86
2023/10/09 00:39:31;930182.00;3.10;1609.19;185302.00;0.62;320.62;;;;;17.90;1.00;;;;;;2264787;61;1114;-86
2023/10/09 00:42:00;302935.00;1.01;522.97;13413.00;0.04;23.86;;;;;17.90;1.00;;;;;;2264714;61;2015;-86
2023/10/09 00:44:37;584759.00;1.95;1007.91;37961.00;0.13;66.36;;;;;17.90;1.00;;;;;;2264826;61;1150;-85
2023/10/09 00:47:10;350439.00;1.17;604.62;0.00;0.00;0.62;;;;;18.00;1.00;;;;;;2264632;61;1744;-86
2023/10/09 00:49:42;558293.00;1.86;962.26;36021.00;0.12;63.00;;;;;18.00;1.00;;;;;;2264774;61;1096;-85
2023/10/09 00:52:17;336741.00;1.12;581.07;39895.00;0.13;69.71;;;;;18.10;1.00;;;;;;2264717;61;1324;-86
2023/10/09 00:54:51;616941.00;2.06;1063.48;0.00;0.00;0.62;;;;;17.90;1.00;;;;;;2264773;61;1283;-86
2023/10/09 00:57:24;834692.00;2.78;1441.70;43335.00;0.14;75.66;;;;;18.10;1.00;;;;;;2264736;61;1234;-85
2023/10/09 00:59:59;262522.00;0.88;453.49;0.00;0.00;0.62;;;;;18.10;1.00;;;;;;2264782;61;1037;-85
2023/10/09 01:02:35;343692.00;1.15;593.02;0.00;0.00;0.62;;;;;18.00;1.00;;;;;;2264660;61;2031;-86
2023/10/09 01:05:18;528108.00;1.76;910.23;45889.00;0.15;80.08;;;;;18.20;1.00;;;;;;2264674;61;1102;-86
2023/10/09 01:07:47;296607.00;0.99;512.09;29572.00;0.10;51.84;;;;;18.70;1.00;;;;;;2264820;61;1097;-86
2023/10/09 01:10:35;1022701.00;3.41;1772.72;66538.00;0.22;115.78;;;;;18.70;1.00;;;;;;2264748;61;1119;-87
2023/10/09 01:13:04;384137.00;1.28;662.54;10893.00;0.04;19.50;;;;;19.00;1.00;;;;;;2264669;61;1765;-86
2023/10/09 01:15:43;717673.00;2.39;1237.90;18747.00;0.06;33.10;;;;;19.10;1.00;;;;;;2264575;61;1618;-86
2023/10/09 01:18:11;189447.00;0.63;327.76;0.00;0.00;0.62;;;;;19.20;1.00;;;;;;2264591;61;1107;-86
2023/10/09 01:20:41;466108.00;1.55;803.49;10598.00;0.04;18.99;;;;;19.20;1.00;;;;;;2264530;61;2006;-85
2023/10/09 01:23:11;238981.00;0.80;413.00;37123.00;0.12;64.91;;;;;19.10;1.00;;;;;;2264636;61;1112;-86
2023/10/09 01:25:49;357783.00;1.19;617.24;0.00;0.00;0.62;;;;;19.30;1.00;;;;;;2264651;61;998;-84
2023/10/09 01:28:16;563725.00;1.88;971.62;84821.00;0.28;147.36;;;;;19.30;1.00;;;;;;2264564;61;2146;-86
2023/10/09 01:30:45;411903.00;1.37;710.27;38847.00;0.13;67.89;;;;;19.30;1.00;;;;;;2264590;61;1272;-86
2023/10/09 01:33:27;751495.00;2.50;1296.66;135333.00;0.45;234.52;;;;;19.30;1.00;;;;;;2264561;61;1139;-86
2023/10/09 01:35:59;709808.00;2.37;1224.25;149415.00;0.50;258.80;;;;;19.40;1.00;;;;;;2264587;61;1039;-88
2023/10/09 01:38:40;215138.00;0.72;371.98;18955.00;0.06;33.46;;;;;19.20;1.00;;;;;;2264621;61;1040;-85
2023/10/09 01:41:15;295928.00;0.99;510.92;0.00;0.00;0.62;;;;;19.00;1.00;;;;;;2264578;61;2002;-86
2023/10/09 01:43:45;679775.00;2.27;1172.18;64570.00;0.22;112.38;;;;;18.70;1.00;;;;;;2264653;61;1148;-85
2023/10/09 01:46:16;325817.00;1.09;562.30;0.00;0.00;0.62;;;;;18.60;1.00;;;;;;2264532;61;971;-86
2023/10/09 01:48:46;303485.00;1.01;523.91;25871.00;0.09;45.44;;;;;18.70;1.00;;;;;;2264563;61;1187;-86
2023/10/09 01:51:17;981988.00;3.27;1700.60;94244.00;0.31;163.64;;;;;18.40;1.00;;;;;;2264483;61;2277;-87
2023/10/09 01:53:47;407490.00;1.36;702.68;12970.00;0.04;23.09;;;;;18.60;1.00;;;;;;2264645;61;1145;-86
2023/10/09 01:56:16;974235.00;3.25;1686.89;68109.00;0.23;118.49;;;;;18.60;1.00;;;;;;2264534;61;1095;-86
2023/10/09 01:58:46;667569.00;2.23;1151.04;145861.00;0.49;252.67;;;;;18.30;1.00;;;;;;2264226;61;1112;-87
2023/10/09 02:01:14;364069.00;1.21;628.04;0.00;0.00;0.62;;;;;18.10;1.00;;;;;;2264507;61;2014;-86
2023/10/09 02:03:43;969247.00;3.23;1678.08;162646.00;0.54;281.60;;;;;17.90;1.00;;;;;;2264542;61;1148;-87
2023/10/09 02:06:24;157657.00;0.53;273.00;0.00;0.00;0.62;;;;;17.60;1.00;;;;;;2264525;61;1308;-85
2023/10/09 02:08:56;687241.00;2.29;1185.12;159258.00;0.53;275.76;;;;;17.40;1.00;;;;;;2264461;61;1062;-86
2023/10/09 02:11:36;920403.00;3.07;1591.98;83015.00;0.28;144.24;;;;;17.20;1.00;;;;;;2264510;61;1432;-86
2023/10/09 02:14:15;812565.00;2.71;1403.05;29354.00;0.10;51.46;;;;;17.20;1.00;;;;;;2264517;61;1131;-86
2023/10/09 02:16:42;705233.00;2.35;1216.31;41689.00;0.14;72.81;;;;;17.70;1.00;;;;;;2264528;61;943;-86
2023/10/09 02:19:28;1725694.00;5.75;3075.46;277176.00;0.92;478.68;;;;;17.80;1.00;;;;;;2264445;61;906;-85
2023/10/09 02:21:57;1670444.00;5.57;2968.14;106063.00;0.35;184.04;;;;;17.80;1.00;;;;;;2264492;61;2001;-86
2023/10/09 02:24:41;1651582.00;5.51;2931.73;131660.00;0.44;228.19;;;;;18.00;1.00;;;;;;2264540;61;937;-86
2023/10/09 02:27:40;135136288.00;450.45;100004568.00;0.00;0.00;0.62;;;;;17.90;1.00;;;;;;2264526;61;1085;-86
2023/10/09 02:30:20;770822.00;2.57;1330.28;143829.00;0.48;249.17;;;;;18.20;1.00;;;;;;2264476;61;1453;-86
2023/10/09 02:32:53;1329804.00;4.43;2326.75;205959.00;0.69;356.18;;;;;18.30;1.00;;;;;;2264463;61;1105;-86
2023/10/09 02:35:36;376855.00;1.26;650.02;79376.00;0.26;137.96;;;;;18.60;1.00;;;;;;2264521;61;1100;-85
2023/10/09 02:38:06;734018.00;2.45;1266.28;118512.00;0.40;205.52;;;;;18.60;1.00;;;;;;2264416;61;1324;-87
2023/10/09 02:40:40;664920.00;2.22;1146.46;126569.00;0.42;219.41;;;;;18.30;1.00;;;;;;2264377;61;1367;-86
2023/10/09 02:43:12;94432.00;0.31;163.96;0.00;0.00;0.62;;;;;18.30;1.00;;;;;;2264469;61;1171;-86
2023/10/09 02:45:50;437657.00;1.46;754.55;51744.00;0.17;90.20;;;;;18.00;1.00;;;;;;2264436;61;1122;-86
2023/10/09 02:48:19;120336.00;0.40;208.66;0.00;0.00;0.62;;;;;17.60;1.00;;;;;;2264454;61;1133;-87
2023/10/09 02:50:46;369175.00;1.23;636.82;20164.00;0.07;35.55;;;;;17.80;1.00;;;;;;2264411;61;1281;-85
2023/10/09 02:53:18;298508.00;1.00;515.36;0.00;0.00;0.62;;;;;17.60;1.00;;;;;;2264443;61;1096;-86
2023/10/09 02:56:02;273390.00;0.91;472.17;0.00;0.00;0.62;;;;;17.60;1.00;;;;;;2264460;61;1028;-86
2023/10/09 02:58:32;489441.00;1.63;843.65;107556.00;0.36;186.61;;;;;17.70;1.00;;;;;;2264330;61;1422;-86
2023/10/09 03:00:59;917346.00;3.06;1586.61;102871.00;0.34;178.53;;;;;18.00;1.00;;;;;;2264376;61;2018;-85
2023/10/09 03:03:27;2449930.00;8.17;4592.83;332227.00;1.11;573.31;;;;;18.10;1.00;;;;;;2264749;61;969;-87
2023/10/09 03:05:54;1682073.00;5.61;2990.64;158690.00;0.53;274.78;;;;;18.40;1.00;;;;;;2264713;61;1097;-86
2023/10/09 03:08:20;1602798.00;5.34;2838.09;157428.00;0.52;272.61;;;;;18.20;1.00;;;;;;2264662;61;1020;-86
2023/10/09 03:10:48;227609.00;0.76;393.44;84326.00;0.28;146.51;;;;;18.10;1.00;;;;;;2265867;61;1387;-87
2023/10/09 03:13:19;232458.00;0.77;401.78;8180.00;0.03;14.80;;;;;18.00;1.00;;;;;;2265854;61;1653;-86
2023/10/09 03:15:48;231530.00;0.77;400.18;0.00;0.00;0.62;;;;;17.80;1.00;;;;;;2265869;61;1328;-86
2023/10/09 03:18:15;175357.00;0.58;303.49;0.00;0.00;0.62;;;;;18.10;1.00;;;;;;2266053;61;1148;-86
2023/10/09 03:20:44;536545.00;1.79;924.77;10009.00;0.03;17.96;;;;;18.60;1.00;;;;;;2265910;61;1341;-86
2023/10/09 03:23:14;131384.00;0.44;227.72;0.00;0.00;0.62;;;;;18.90;1.00;;;;;;2265995;61;1935;-86
2023/10/09 03:25:45;209585.00;0.70;362.42;14149.00;0.05;25.14;;;;;19.30;1.00;;;;;;2265913;61;1038;-86
2023/10/09 03:28:15;443678.00;1.48;764.91;42386.00;0.14;74.02;;;;;19.50;1.00;;;;;;2265982;61;1139;-87
2023/10/09 03:30:46;205538.00;0.69;355.46;0.00;0.00;0.62;;;;;19.70;1.00;;;;;;2265929;61;1412;-87
2023/10/09 03:33:15;398624.00;1.33;687.44;30164.00;0.10;52.87;;;;;19.80;1.00;;;;;;2265882;61;1040;-87
2023/10/09 03:35:42;483976.00;1.61;834.24;42101.00;0.14;73.52;;;;;19.90;1.00;;;;;;2265941;61;1139;-87
2023/10/09 03:38:14;435689.00;1.45;751.17;56738.00;0.19;98.84;;;;;19.90;1.00;;;;;;2266045;61;1099;-87
2023/10/09 03:40:42;520004.00;1.73;896.27;31942.00;0.11;55.94;;;;;20.10;1.00;;;;;;2265903;61;1339;-87
2023/10/09 03:43:11;171941.00;0.57;297.61;0.00;0.00;0.62;;;;;20.10;1.00;;;;;;2265830;61;1927;-86
2023/10/09 03:45:45;212922.00;0.71;368.16;0.00;0.00;0.62;;;;;20.20;1.00;;;;;;2265848;61;1118;-87
2023/10/09 03:48:20;301609.00;1.01;520.69;0.00;0.00;0.62;;;;;20.10;1.00;;;;;;2265930;61;1037;-85
2023/10/09 03:50:47;125354856.00;417.85;79805168.00;0.00;0.00;0.62;;;;;19.90;1.00;;;;;;2265825;61;1301;-86
2023/10/09 03:53:14;452400.00;1.51;779.91;10831.00;0.04;19.39;;;;;19.80;1.00;;;;;;2265831;61;1579;-85
2023/10/09 03:55:42;689950.00;2.30;1189.82;81426.00;0.27;141.50;;;;;19.80;1.00;;;;;;2265879;61;1007;-85
2023/10/09 03:58:11;758377.00;2.53;1308.63;94997.00;0.32;164.94;;;;;19.70;1.00;;;;;;2265731;61;1064;-86
2023/10/09 04:00:44;1429616.00;4.77;2511.37;305604.00;1.02;527.55;;;;;19.70;1.00;;;;;;2265834;61;1352;-87
2023/10/09 04:03:14;1608563.00;5.36;2849.11;284008.00;0.95;490.43;;;;;19.90;1.00;;;;;;2265795;61;2013;-86
2023/10/09 04:05:42;2246798.00;7.49;4144.01;378026.00;1.26;652.03;;;;;19.90;1.00;;;;;;2265887;61;1186;-86
2023/10/09 04:08:16;1490285.00;4.97;2624.85;329849.00;1.10;569.23;;;;;19.80;1.00;;;;;;2265827;61;1649;-86
2023/10/09 04:10:51;654570.00;2.18;1128.54;44134.00;0.15;77.04;;;;;19.60;1.00;;;;;;2265855;61;1442;-84
2023/10/09 04:13:22;490727.00;1.64;845.86;77713.00;0.26;135.09;;;;;19.30;1.00;;;;;;2265802;61;1126;-86
2023/10/09 04:15:52;859455.00;2.86;1485.02;119292.00;0.40;206.86;;;;;19.30;1.00;;;;;;2265833;61;1141;-85
2023/10/09 04:18:28;674195.00;2.25;1162.52;43385.00;0.14;75.74;;;;;19.50;1.00;;;;;;2265876;61;943;-86
2023/10/09 04:26:21;726374.00;2.42;1253.00;128941.00;0.43;223.50;;;;;19.00;1.00;;;;;;2264885;61;1353;-85
2023/10/09 04:28:51;769638.00;2.57;1328.22;99005.00;0.33;171.85;;;;;18.90;1.00;;;;;;2265120;61;1120;-84
2023/10/09 04:31:22;382309.00;1.27;659.39;66914.00;0.22;116.43;;;;;18.80;1.00;;;;;;2264710;61;1443;-87
2023/10/09 04:33:57;317253.00;1.06;547.58;7864.00;0.03;14.25;;;;;18.80;1.00;;;;;;2265087;61;1603;-86
2023/10/09 04:36:28;297522.00;0.99;513.66;11783.00;0.04;21.04;;;;;19.00;1.00;;;;;;2265006;61;1614;-86
2023/10/09 04:39:15;121189152.00;403.96;72103672.00;0.00;0.00;0.62;;;;;19.30;1.00;;;;;;2265083;61;1087;-86
2023/10/09 04:42:19;226750.00;0.76;391.96;0.00;0.00;0.62;;;;;19.20;1.00;;;;;;2264948;61;2001;-85
2023/10/09 04:44:59;117006.00;0.39;202.92;0.00;0.00;0.62;;;;;19.50;1.00;;;;;;2264926;61;1140;-86
2023/10/09 04:47:35;300587.00;1.00;518.93;24387.00;0.08;42.87;;;;;19.80;1.00;;;;;;2264962;61;1096;-86
2023/10/09 04:50:11;652270.00;2.17;1124.56;38297.00;0.13;66.94;;;;;19.90;1.00;;;;;;2265110;61;1174;-86
2023/10/09 04:52:52;446363.00;1.49;769.53;69792.00;0.23;121.40;;;;;19.80;1.00;;;;;;2265051;61;1466;-85
2023/10/09 04:55:24;662590.00;2.21;1142.42;42473.00;0.14;74.17;;;;;19.70;1.00;;;;;;2265042;61;1140;-85
2023/10/09 04:58:02;277251.00;0.92;478.81;31778.00;0.11;55.66;;;;;19.80;1.00;;;;;;2264988;61;1116;-87
2023/10/09 05:01:01;264994.00;0.88;457.74;0.00;0.00;0.62;;;;;19.70;1.00;;;;;;2265014;61;1316;-85
2023/10/09 05:03:42;586658.00;1.96;1011.19;100338.00;0.33;174.16;;;;;19.80;1.00;;;;;;2264885;61;2009;-86
2023/10/09 05:06:21;145526.00;0.49;252.10;0.00;0.00;0.62;;;;;19.60;1.00;;;;;;2264925;61;996;-86
2023/10/09 05:08:48;218961.00;0.73;378.56;5706.00;0.02;10.51;;;;;19.40;1.00;;;;;;2264966;61;1733;-84
2023/10/09 05:11:34;467634.00;1.56;806.12;49570.00;0.17;86.44;;;;;19.10;1.00;;;;;;2264769;61;1298;-85
2023/10/09 05:14:12;338352.00;1.13;583.84;31005.00;0.10;54.32;;;;;19.00;1.00;;;;;;2264962;61;1085;-88
2023/10/09 05:16:53;256784.00;0.86;443.62;0.00;0.00;0.62;;;;;19.00;1.00;;;;;;2264840;61;1148;-84
2023/10/09 05:22:09;185998.00;0.62;321.82;0.00;0.00;0.62;;;;;19.80;1.00;;;;;;2264861;61;1920;-86
2023/10/09 05:24:44;114077.00;0.38;197.86;0.00;0.00;0.62;;;;;19.80;1.00;;;;;;2264997;61;1053;-86
2023/10/09 05:27:18;375164.00;1.25;647.11;17628.00;0.06;31.16;;;;;19.80;1.00;;;;;;2264929;61;1137;-86
2023/10/09 05:29:59;382841.00;1.28;660.31;24209.00;0.08;42.56;;;;;19.20;1.00;;;;;;2264949;61;1186;-86
2023/10/09 05:32:29;450724.00;1.50;777.03;67079.00;0.22;116.71;;;;;19.20;1.00;;;;;;2264659;61;1342;-85
2023/10/09 05:35:15;278835.00;0.93;481.53;0.00;0.00;0.62;;;;;19.00;1.00;;;;;;2264811;61;1214;-86
2023/10/09 05:37:45;592395.00;1.97;1021.09;67378.00;0.22;117.23;;;;;18.80;1.00;;;;;;2264796;61;1701;-86
2023/10/09 05:40:30;966651.00;3.22;1673.49;136811.00;0.46;237.07;;;;;18.60;1.00;;;;;;2264890;61;1220;-85
2023/10/09 05:43:02;884804.00;2.95;1529.45;110391.00;0.37;191.50;;;;;18.90;1.00;;;;;;2264701;61;2023;-87
2023/10/09 05:51:19;1009340.00;3.36;1749.02;148225.00;0.49;256.75;;;;;19.00;1.00;;;;;;2264849;61;1424;-86
2023/10/09 06:05:04;1053740.00;3.51;1827.89;52176.00;0.17;90.95;;;;;19.20;1.00;;;;;;2264886;61;741;-85
2023/10/09 06:08:04;498414.00;1.66;859.09;90703.00;0.30;157.52;;;;;19.30;1.00;;;;;;2264704;61;1080;-87
2023/10/09 06:10:39;1045944.00;3.49;1814.02;155725.00;0.52;269.67;;;;;19.60;1.00;;;;;;2264771;61;1371;-86
2023/10/09 06:13:06;348641.00;1.16;601.53;116372.00;0.39;201.82;;;;;19.50;1.00;;;;;;2264842;61;1056;-86
2023/10/09 06:16:09;645473.00;2.15;1112.80;32549.00;0.11;56.99;;;;;19.50;1.00;;;;;;2264863;61;1148;-89
2023/10/09 06:18:41;167236.00;0.56;289.51;0.00;0.00;0.62;;;;;19.90;1.00;;;;;;2264718;61;1093;-87
2023/10/09 06:21:09;554705.00;1.85;956.07;84538.00;0.28;146.88;;;;;19.90;1.00;;;;;;2264741;61;1365;-86
2023/10/09 06:26:25;579263.00;1.93;998.43;135641.00;0.45;235.06;;;;;19.70;1.00;;;;;;2264734;61;669;-86
2023/10/09 06:29:14;359045.00;1.20;619.41;28316.00;0.09;49.67;;;;;19.70;1.00;;;;;;2264776;61;1075;-87
2023/10/09 06:34:35;649557.00;2.17;1119.87;118956.00;0.40;206.28;;;;;20.30;1.00;;;;;;2261987;61;1496;-87
2023/10/09 06:37:07;371530.00;1.24;640.87;0.00;0.00;0.62;;;;;20.20;1.00;;;;;;2264612;61;1119;-86
2023/10/09 06:40:22;754898.00;2.52;1302.58;54382.00;0.18;94.76;;;;;20.20;1.00;;;;;;2264737;61;1032;-85
2023/10/09 06:42:44;367314.00;1.22;633.62;6226.00;0.02;11.41;;;;;20.20;1.00;;;;;;2264534;61;1922;-85
2023/10/09 06:45:17;531464.00;1.77;916.01;28699.00;0.10;50.33;;;;;20.20;1.00;;;;;;2264470;61;1729;-87
2023/10/09 06:47:55;1041393.00;3.47;1805.92;88047.00;0.29;152.94;;;;;19.90;1.00;;;;;;2264658;61;1725;-86
2023/10/09 06:50:55;1371257.00;4.57;2403.12;98630.00;0.33;171.21;;;;;19.90;1.00;;;;;;2264557;61;1330;-87
2023/10/09 06:53:25;2443360.00;8.14;4577.99;298298.00;0.99;514.99;;;;;19.50;1.00;;;;;;2264597;61;1337;-85
2023/10/09 06:56:04;1047866.00;3.49;1817.44;48861.00;0.16;85.22;;;;;19.30;1.00;;;;;;2264626;61;1680;-85
2023/10/09 06:58:41;1466181.00;4.89;2579.64;298705.00;1.00;515.69;;;;;19.50;1.00;;;;;;2264721;61;1454;-86
2023/10/09 07:03:59;480275.00;1.60;827.87;81229.00;0.27;141.16;;;;;19.90;1.00;;;;;;2263611;61;2003;-86
2023/10/09 07:09:18;406810.00;1.36;701.51;57938.00;0.19;100.91;;;;;20.30;1.00;;;;;;2264294;61;1089;-86
2023/10/09 07:12:04;365285.00;1.22;630.13;50983.00;0.17;88.89;;;;;19.90;1.00;;;;;;2264442;61;1618;-87
2023/10/09 07:17:21;430792.00;1.44;742.75;78314.00;0.26;136.12;;;;;19.80;1.00;;;;;;2264680;61;804;-85
2023/10/09 07:22:39;419881.00;1.40;723.99;10524.00;0.04;18.86;;;;;19.70;1.00;;;;;;2264653;61;2002;-87
2023/10/09 07:25:27;261054.00;0.87;450.96;0.00;0.00;0.62;;;;;19.90;1.00;;;;;;2264625;61;1299;-86
2023/10/09 07:27:56;463825.00;1.55;799.57;104715.00;0.35;181.71;;;;;20.30;1.00;;;;;;2264654;61;1542;-86
2023/10/09 07:30:38;120670.00;0.40;209.24;22817.00;0.08;40.15;;;;;20.40;1.00;;;;;;2264531;61;1273;-85
2023/10/09 07:33:16;408033.00;1.36;703.62;0.00;0.00;0.62;;;;;20.50;1.00;;;;;;2264638;61;982;-86
2023/10/09 07:35:48;672212.00;2.24;1159.08;73085.00;0.24;127.09;;;;;20.50;1.00;;;;;;2264673;61;1230;-86
2023/10/09 07:38:19;548751.00;1.83;945.81;0.00;0.00;0.62;;;;;20.60;1.00;;;;;;2264473;61;1687;-87
2023/10/09 07:41:33;549366.00;1.83;946.87;26836.00;0.09;47.11;;;;;20.60;1.00;;;;;;2264538;61;1437;-86
2023/10/09 07:43:50;310402.00;1.03;535.80;0.00;0.00;0.62;;;;;20.70;1.00;;;;;;2264436;61;1923;-86
2023/10/09 07:46:32;397485.00;1.32;685.48;0.00;0.00;0.62;;;;;20.90;1.00;;;;;;2264501;61;1085;-87
2023/10/09 07:49:00;816607.00;2.72;1410.10;48834.00;0.16;85.17;;;;;21.00;1.00;;;;;;2264600;61;1039;-87
2023/10/09 07:51:31;235350.00;0.78;406.75;0.00;0.00;0.62;;;;;21.10;1.00;;;;;;2264460;61;1373;-87
2023/10/09 07:54:06;569763.00;1.90;982.04;67830.00;0.23;118.01;;;;;21.50;1.00;;;;;;2264608;61;1033;-87
2023/10/09 07:56:38;351208.00;1.17;605.94;0.00;0.00;0.62;;;;;21.90;1.00;;;;;;2264880;61;1072;-86
2023/10/09 07:59:10;56123.00;0.19;97.77;0.00;0.00;0.62;;;;;22.10;1.00;;;;;;2265230;61;1124;-86
2023/10/09 08:01:38;407807.00;1.36;703.23;75691.00;0.25;131.59;;;;;21.90;1.00;;;;;;2265269;61;2149;-87
2023/10/09 08:04:10;573120.00;1.91;987.83;143433.00;0.48;248.49;;;;;21.70;1.00;;;;;;2265024;61;1928;-87
2023/10/09 08:06:42;323933.00;1.08;559.06;0.00;0.00;0.62;;;;;21.50;1.00;;;;;;2265250;61;982;-87
2023/10/09 08:09:28;608697.00;2.03;1049.24;44909.00;0.15;78.38;;;;;21.30;1.00;;;;;;2265257;61;1125;-87
2023/10/09 08:12:13;1100197.00;3.67;1910.78;283859.00;0.95;490.17;;;;;21.30;1.00;;;;;;2265249;61;1787;-88
2023/10/09 08:14:42;1162558.00;3.88;2022.67;192760.00;0.64;333.46;;;;;21.10;1.00;;;;;;2265222;61;1452;-87
2023/10/09 08:17:14;1696129.00;5.65;3017.91;165965.00;0.55;287.32;;;;;21.00;1.00;;;;;;2265229;61;1603;-87
2023/10/09 08:19:53;637944.00;2.13;1099.78;74835.00;0.25;130.11;;;;;21.10;1.00;;;;;;2265208;61;1535;-87
2023/10/09 08:25:08;1840552.00;6.14;3301.90;254229.00;0.85;439.22;;;;;21.90;1.00;;;;;;2265219;61;743;-86
2023/10/09 08:27:54;1904903.00;6.35;3430.85;258659.00;0.86;446.84;;;;;22.00;1.00;;;;;;2265231;61;1186;-86
2023/10/09 08:33:39;137014848.00;456.72;104237752.00;233168.00;0.78;403.00;;;;;22.00;1.00;;;;;;2265170;61;688;-86
2023/10/09 08:36:07;1508738.00;5.03;2659.57;247640.00;0.83;427.89;;;;;22.20;1.00;;;;;;2265168;61;1041;-88
2023/10/09 08:38:35;1620826.00;5.40;2872.61;276149.00;0.92;476.92;;;;;22.50;1.00;;;;;;2265067;61;1153;-87
2023/10/09 08:41:18;1202891.00;4.01;2095.45;140963.00;0.47;244.23;;;;;22.80;1.00;;;;;;2265061;61;1285;-88
2023/10/09 08:43:52;1050946.00;3.50;1822.92;167779.00;0.56;290.44;;;;;22.80;1.00;;;;;;2265066;61;2002;-87
2023/10/09 08:46:26;1675380.00;5.58;2977.69;199711.00;0.67;345.43;;;;;23.10;1.00;;;;;;2265114;61;1040;-87
2023/10/09 08:48:55;1004291.00;3.35;1740.07;200423.00;0.67;346.65;;;;;23.30;1.00;;;;;;2265085;61;974;-87
2023/10/09 08:51:23;1781906.00;5.94;3185.70;399967.00;1.33;689.75;;;;;23.20;1.00;;;;;;2265015;61;1364;-86
2023/10/09 08:53:50;806868.00;2.69;1393.10;93600.00;0.31;162.52;;;;;23.30;1.00;;;;;;2265172;61;998;-87
2023/10/09 08:56:22;881636.00;2.94;1523.89;125454.00;0.42;217.49;;;;;23.60;1.00;;;;;;2265084;61;1097;-87
2023/10/09 08:58:51;1235577.00;4.12;2154.68;133237.00;0.44;230.91;;;;;23.90;1.00;;;;;;2265018;61;1111;-86
2023/10/09 09:01:20;814976.00;2.72;1407.25;153644.00;0.51;266.09;;;;;24.30;1.00;;;;;;2265058;61;1585;-87
2023/10/09 09:03:50;462831.00;1.54;797.86;113362.00;0.38;196.63;;;;;24.40;1.00;;;;;;2265094;61;1996;-87
2023/10/09 09:06:19;718087.00;2.39;1238.62;70474.00;0.23;122.58;;;;;24.50;1.00;;;;;;2265074;61;945;-87
2023/10/09 09:08:47;502685.00;1.68;866.45;53895.00;0.18;93.92;;;;;24.80;1.00;;;;;;2264910;61;1818;-88
2023/10/09 09:11:17;504143.00;1.68;868.96;55201.00;0.18;96.18;;;;;25.10;1.00;;;;;;2264913;61;1401;-86
2023/10/09 09:13:51;101884.00;0.34;176.82;0.00;0.00;0.62;;;;;25.30;1.00;;;;;;2265085;61;1029;-86
2023/10/09 09:16:20;365339.00;1.22;630.23;0.00;0.00;0.62;;;;;24.60;1.00;;;;;;2265139;61;1034;-86
2023/10/09 09:19:17;344006.00;1.15;593.56;0.00;0.00;0.62;;;;;24.00;1.00;;;;;;2265043;61;1123;-87
2023/10/09 09:21:54;598305.00;1.99;1031.29;56090.00;0.19;97.72;;;;;24.00;1.00;;;;;;2265055;61;1317;-86
2023/10/09 09:24:30;356312.00;1.19;614.71;65356.00;0.22;113.73;;;;;24.50;1.00;;;;;;2265048;61;1928;-86
2023/10/09 09:27:09;568476.00;1.89;979.82;43049.00;0.14;75.16;;;;;24.30;1.00;;;;;;2265063;61;1570;-86
2023/10/09 09:29:42;546468.00;1.82;941.87;33059.00;0.11;57.88;;;;;24.20;1.00;;;;;;2265102;61;1301;-86
2023/10/09 09:32:19;400909.00;1.34;691.37;65004.00;0.22;113.13;;;;;24.10;1.00;;;;;;2264911;61;1305;-87
2023/10/09 09:34:49;660335.00;2.20;1138.52;88419.00;0.29;153.58;;;;;24.30;1.00;;;;;;2265045;61;1155;-87
2023/10/09 09:37:20;327738.00;1.09;565.60;0.00;0.00;0.62;;;;;24.40;1.00;;;;;;2265011;61;1141;-87
2023/10/09 09:39:52;312916.00;1.04;540.12;31659.00;0.11;55.45;;;;;24.10;1.00;;;;;;2264956;61;974;-87
2023/10/09 09:42:24;588065.00;1.96;1013.62;71586.00;0.24;124.50;;;;;24.10;1.00;;;;;;2264864;61;1755;-87
2023/10/09 09:44:52;426883.00;1.42;736.03;37659.00;0.13;65.84;;;;;23.70;1.00;;;;;;2264931;61;987;-87
2023/10/09 09:47:26;1818527.00;6.06;3258.12;340973.00;1.14;588.35;;;;;23.80;1.00;;;;;;2264927;61;1045;-86
2023/10/09 09:50:00;1740572.00;5.80;3104.53;170879.00;0.57;295.78;;;;;23.80;1.00;;;;;;2264895;61;1079;-86
2023/10/09 09:52:37;1719911.00;5.73;3064.18;318591.00;1.06;549.88;;;;;24.00;1.00;;;;;;2264872;61;1497;-86
2023/10/09 09:55:07;1500796.00;5.00;2644.62;88063.00;0.29;152.96;;;;;24.60;1.00;;;;;;2264779;61;1101;-86
2023/10/09 09:57:39;1911698.00;6.37;3444.56;266479.00;0.89;460.29;;;;;25.10;1.00;;;;;;2264967;61;1037;-85
2023/10/09 10:00:27;1243763.00;4.15;2169.55;111628.00;0.37;193.64;;;;;25.60;1.00;;;;;;2264743;61;1585;-87
2023/10/09 10:02:58;1998204.00;6.66;3620.64;436082.00;1.45;751.84;;;;;25.80;1.00;;;;;;2264879;61;1992;-86
2023/10/09 10:05:30;1201164.00;4.00;2092.32;102306.00;0.34;177.55;;;;;26.20;1.00;;;;;;2264943;61;1108;-86
2023/10/09 10:08:00;607299.00;2.02;1046.82;109628.00;0.37;190.19;;;;;26.50;1.00;;;;;;2264905;61;1032;-86
2023/10/09 10:10:47;671748.00;2.24;1158.28;94952.00;0.32;164.86;;;;;26.60;1.00;;;;;;2264852;61;1281;-85
2023/10/09 10:13:21;430972.00;1.44;743.06;77934.00;0.26;135.47;;;;;26.60;1.00;;;;;;2264789;61;935;-85
2023/10/09 10:16:11;196724.00;0.66;340.28;0.00;0.00;0.62;;;;;26.90;1.00;;;;;;2264844;61;1522;-87
2023/10/09 10:18:59;635834.00;2.12;1096.14;144115.00;0.48;249.66;;;;;26.90;1.00;;;;;;2264661;61;1112;-86
2023/10/09 10:24:55;583262.00;1.94;1005.33;71569.00;0.24;124.47;;;;;27.20;1.00;;;;;;2264157;61;1928;-87
2023/10/09 10:27:26;1161487.00;3.87;2020.74;260679.00;0.87;450.32;;;;;27.70;1.00;;;;;;2264400;61;1106;-87
2023/10/09 10:30:43;693040.00;2.31;1195.17;111368.00;0.37;193.19;;;;;27.90;1.00;;;;;;2264466;61;1009;-88
2023/10/09 10:33:12;916071.00;3.05;1584.36;157850.00;0.53;273.33;;;;;28.30;1.00;;;;;;2257974;61;1093;-88
2023/10/09 10:35:46;791548.00;2.64;1366.39;55899.00;0.19;97.39;;;;;28.20;1.00;;;;;;2264504;61;996;-87
2023/10/09 10:38:38;264553.00;0.88;456.98;70711.00;0.24;122.99;;;;;28.00;1.00;;;;;;2264509;61;1050;-87
2023/10/09 10:41:16;727953.00;2.43;1255.75;70235.00;0.23;122.17;;;;;28.00;1.00;;;;;;2264183;61;1704;-87
2023/10/09 10:43:54;763005.00;2.54;1316.68;89763.00;0.30;155.90;;;;;27.70;1.00;;;;;;2264433;61;1920;-86
2023/10/09 10:46:30;656271.00;2.19;1131.49;146798.00;0.49;254.29;;;;;28.10;1.00;;;;;;2264403;61;976;-87
2023/10/09 10:49:00;971954.00;3.24;1682.86;242419.00;0.81;418.91;;;;;28.10;1.00;;;;;;2264365;61;1254;-87